Time;durP1;ratioP1;P1;durP2;ratioP2;P2;SDS_P1;SDS_P2;PMS_P1;PMS_P2;Temp;Humidity;BMP_temperature;BMP_pressure;BME280_temperature;BME280_humidity;BME280_pressure;Samples;Min_cycle;Max_cycle;Signal;HPM_P1;HPM_P2
2022/05/01 00:00:23;;;;;;;;;;;16.60;99.90;;;;;;5075226;28;20375;-78
2022/05/01 00:02:49;;;;;;;;;;;16.70;99.90;;;;;;5107853;28;19909;-77
2022/05/01 00:05:16;;;;;;;;;;;16.80;99.90;;;;;;5075144;28;20355;-77
2022/05/01 00:07:43;;;;;;;;;;;16.80;99.90;;;;;;5074914;28;20011;-78
2022/05/01 00:10:10;;;;;;;;;;;16.80;99.90;;;;;;5074482;28;19940;-78
2022/05/01 00:12:37;;;;;;;;;;;16.90;99.90;;;;;;5075126;28;20264;-78
2022/05/01 00:15:05;;;;;;;;;;;17.00;99.90;;;;;;5074771;28;19916;-79
2022/05/01 00:17:32;;;;;;;;;;;17.10;99.90;;;;;;5075859;28;19915;-91
2022/05/01 00:19:59;;;;;;;;;;;17.10;99.90;;;;;;5076979;28;19931;-89
2022/05/01 00:22:25;;;;;;;;;;;17.10;99.90;;;;;;5109364;28;19954;-80
2022/05/01 00:24:52;;;;;;;;;;;17.10;99.90;;;;;;5074998;28;19962;-94
2022/05/01 00:27:19;;;;;;;;;;;17.10;99.90;;;;;;5076689;28;20278;-82
2022/05/01 00:29:46;;;;;;;;;;;17.10;99.90;;;;;;5075782;28;20054;-78
2022/05/01 00:32:12;;;;;;;;;;;17.10;99.90;;;;;;5074787;28;20260;-84
2022/05/01 00:37:23;;;;;;;;;;;17.40;99.90;;;;;;5075237;28;19955;-80
2022/05/01 00:39:50;;;;;;;;;;;17.60;99.90;;;;;;5074440;28;19919;-79
2022/05/01 00:42:17;;;;;;;;;;;17.70;99.90;;;;;;5116412;28;19915;-79
2022/05/01 00:44:44;;;;;;;;;;;17.80;99.90;;;;;;5078143;28;19913;-80
2022/05/01 00:47:11;;;;;;;;;;;17.90;99.90;;;;;;5075094;28;19972;-79
2022/05/01 00:49:37;;;;;;;;;;;17.90;99.90;;;;;;5075967;28;19920;-79
2022/05/01 00:52:09;;;;;;;;;;;17.90;99.90;;;;;;5074084;28;19950;-77
2022/05/01 00:54:37;;;;;;;;;;;18.00;99.90;;;;;;5073668;28;19908;-77
2022/05/01 00:57:05;;;;;;;;;;;18.00;99.90;;;;;;5074190;28;19965;-78
2022/05/01 00:59:32;;;;;;;;;;;18.00;99.90;;;;;;5074075;28;19940;-78
2022/05/01 01:01:59;;;;;;;;;;;18.10;99.90;;;;;;5074704;28;19908;-80
2022/05/01 01:04:26;;;;;;;;;;;18.20;99.90;;;;;;5074367;28;20416;-80
2022/05/01 01:06:52;;;;;;;;;;;18.30;99.90;;;;;;5074585;28;19923;-79
2022/05/01 01:09:19;;;;;;;;;;;18.40;99.90;;;;;;5074302;28;19916;-90
2022/05/01 01:11:46;;;;;;;;;;;18.50;99.90;;;;;;5074005;28;19951;-85
2022/05/01 01:14:15;;;;;;;;;;;18.50;99.90;;;;;;5074634;28;19961;-86
2022/05/01 01:16:44;;;;;;;;;;;18.50;99.90;;;;;;5075410;28;20453;-83
2022/05/01 01:19:11;;;;;;;;;;;18.60;99.90;;;;;;5074956;28;19909;-92
2022/05/01 01:21:38;;;;;;;;;;;18.80;99.90;;;;;;5075075;28;19912;-91
2022/05/01 01:24:10;;;;;;;;;;;18.90;99.90;;;;;;5074510;28;19996;-85
2022/05/01 01:26:37;;;;;;;;;;;19.00;99.90;;;;;;5074983;28;19970;-80
2022/05/01 01:31:40;;;;;;;;;;;19.00;99.90;;;;;;5074279;28;19912;-80
2022/05/01 01:31:53;;;;;;;;;;;18.90;99.90;;;;;;5097987;28;19927;-80
2022/05/01 01:34:22;;;;;;;;;;;18.80;99.90;;;;;;5112701;28;20284;-81
2022/05/01 01:36:49;;;;;;;;;;;18.80;99.90;;;;;;5112642;28;19983;-82
2022/05/01 01:39:18;;;;;;;;;;;18.90;99.90;;;;;;5111867;28;19908;-80
2022/05/01 01:41:47;;;;;;;;;;;18.90;99.90;;;;;;5112768;28;19915;-81
2022/05/01 01:44:14;;;;;;;;;;;18.90;99.90;;;;;;5111811;28;19919;-81
2022/05/01 01:46:41;;;;;;;;;;;18.80;99.90;;;;;;5112409;28;19908;-80
2022/05/01 01:49:10;;;;;;;;;;;18.80;99.90;;;;;;5112351;28;19908;-80
2022/05/01 01:51:37;;;;;;;;;;;18.80;99.90;;;;;;5113058;28;20274;-79
2022/05/01 01:54:04;;;;;;;;;;;18.80;99.90;;;;;;5113686;28;20006;-78
2022/05/01 01:56:31;;;;;;;;;;;18.90;99.90;;;;;;5112853;28;19915;-82
2022/05/01 01:58:57;;;;;;;;;;;18.90;99.90;;;;;;5113843;28;19908;-79
2022/05/01 02:01:25;;;;;;;;;;;19.00;99.90;;;;;;5114053;28;19971;-79
2022/05/01 02:03:51;;;;;;;;;;;19.00;99.90;;;;;;5113592;28;19908;-79
2022/05/01 02:06:19;;;;;;;;;;;19.00;99.90;;;;;;5112828;28;20032;-80
2022/05/01 02:08:47;;;;;;;;;;;19.00;99.90;;;;;;5113262;28;19908;-80
2022/05/01 02:11:14;;;;;;;;;;;19.10;99.90;;;;;;5113662;28;19920;-80
2022/05/01 02:13:41;;;;;;;;;;;19.10;99.90;;;;;;5113555;28;19908;-80
2022/05/01 02:16:08;;;;;;;;;;;19.10;99.90;;;;;;5114130;28;19915;-79
2022/05/01 02:18:35;;;;;;;;;;;19.10;99.90;;;;;;5113857;28;19908;-79
2022/05/01 02:23:46;;;;;;;;;;;19.10;99.90;;;;;;5113882;28;19914;-90
2022/05/01 02:26:13;;;;;;;;;;;19.10;99.90;;;;;;5114854;28;20021;-86
2022/05/01 02:28:40;;;;;;;;;;;19.10;99.90;;;;;;5114999;28;20374;-79
2022/05/01 02:31:06;;;;;;;;;;;19.20;99.90;;;;;;5114498;28;19916;-92
2022/05/01 02:33:33;;;;;;;;;;;19.20;99.90;;;;;;5115530;28;19908;-85
2022/05/01 02:36:00;;;;;;;;;;;19.20;99.90;;;;;;5113999;28;20304;-88
2022/05/01 02:38:26;;;;;;;;;;;19.10;99.90;;;;;;5113512;28;19950;-83
2022/05/01 02:40:53;;;;;;;;;;;19.10;99.90;;;;;;5113099;28;19907;-80
2022/05/01 02:43:20;;;;;;;;;;;19.20;99.90;;;;;;5114273;28;19990;-86
2022/05/01 02:45:47;;;;;;;;;;;19.20;99.90;;;;;;5114060;28;19908;-84
2022/05/01 02:48:14;;;;;;;;;;;19.20;99.90;;;;;;5113154;28;19916;-84
2022/05/01 02:50:41;;;;;;;;;;;19.30;99.90;;;;;;5114417;28;19926;-89
2022/05/01 02:53:07;;;;;;;;;;;19.20;99.90;;;;;;5114763;28;19908;-90
2022/05/01 02:55:34;;;;;;;;;;;19.30;99.90;;;;;;5115765;28;20392;-79
2022/05/01 02:58:02;;;;;;;;;;;19.40;99.90;;;;;;5115564;28;19915;-82
2022/05/01 03:00:28;;;;;;;;;;;19.50;99.90;;;;;;5115309;28;19908;-85
2022/05/01 03:02:58;;;;;;;;;;;19.50;99.90;;;;;;5117508;28;20354;-88
2022/05/01 03:05:24;;;;;;;;;;;19.50;99.90;;;;;;5118322;28;19908;-88
2022/05/01 03:07:53;;;;;;;;;;;19.50;99.90;;;;;;5113875;28;19911;-82
2022/05/01 03:10:20;;;;;;;;;;;19.40;99.90;;;;;;5116014;28;19915;-83
2022/05/01 03:12:47;;;;;;;;;;;19.40;99.90;;;;;;5114497;28;19912;-87
2022/05/01 03:15:13;;;;;;;;;;;19.50;99.90;;;;;;5117394;28;20018;-86
2022/05/01 03:23:09;;;;;;;;;;;19.30;99.90;;;;;;5117333;28;19919;-81
2022/05/01 03:25:36;;;;;;;;;;;19.40;99.90;;;;;;5117279;28;19947;-77
2022/05/01 03:28:02;;;;;;;;;;;19.40;99.90;;;;;;5118267;28;19927;-85
2022/05/01 03:30:29;;;;;;;;;;;19.50;99.90;;;;;;5116640;28;20254;-78
2022/05/01 03:32:57;;;;;;;;;;;19.50;99.90;;;;;;5117149;28;20014;-81
2022/05/01 03:35:24;;;;;;;;;;;19.50;99.90;;;;;;5117384;28;20361;-79
2022/05/01 03:37:50;;;;;;;;;;;19.70;99.90;;;;;;5116905;28;19912;-85
2022/05/01 03:40:17;;;;;;;;;;;19.80;99.90;;;;;;5117405;28;19908;-91
2022/05/01 03:42:44;;;;;;;;;;;19.70;99.90;;;;;;5117414;28;19937;-82
2022/05/01 03:45:10;;;;;;;;;;;19.60;99.90;;;;;;5117565;28;19914;-86
2022/05/01 03:47:37;;;;;;;;;;;19.50;99.90;;;;;;5117368;28;19907;-81
2022/05/01 03:50:05;;;;;;;;;;;19.30;99.90;;;;;;5117630;28;20006;-83
2022/05/01 03:52:33;;;;;;;;;;;19.30;99.90;;;;;;5117301;28;20074;-89
2022/05/01 03:55:00;;;;;;;;;;;19.30;99.90;;;;;;5115928;28;19908;-82
2022/05/01 03:57:27;;;;;;;;;;;19.30;99.90;;;;;;5117194;28;19907;-85
2022/05/01 03:59:54;;;;;;;;;;;19.40;99.90;;;;;;5116251;28;19908;-85
2022/05/01 04:02:20;;;;;;;;;;;19.50;99.90;;;;;;5119198;28;19915;-89
2022/05/01 04:04:48;;;;;;;;;;;19.60;99.90;;;;;;5118317;28;19990;-79
2022/05/01 04:07:15;;;;;;;;;;;19.80;99.90;;;;;;5116983;28;19908;-82
2022/05/01 04:09:41;;;;;;;;;;;20.00;99.90;;;;;;5118322;28;19953;-90
2022/05/01 04:12:08;;;;;;;;;;;20.10;99.90;;;;;;5117835;28;20010;-81
2022/05/01 04:14:36;;;;;;;;;;;20.10;99.90;;;;;;5117145;28;19973;-83
2022/05/01 04:17:02;;;;;;;;;;;20.10;99.90;;;;;;5117648;28;19908;-82
2022/05/01 04:19:29;;;;;;;;;;;20.00;99.90;;;;;;5117243;28;19915;-83
2022/05/01 04:21:56;;;;;;;;;;;19.90;99.90;;;;;;5117622;28;19914;-84
2022/05/01 04:24:23;;;;;;;;;;;19.90;99.90;;;;;;5116953;28;19907;-84
2022/05/01 04:26:50;;;;;;;;;;;19.80;99.90;;;;;;5118299;28;19914;-89
2022/05/01 04:32:01;;;;;;;;;;;19.60;99.90;;;;;;5119633;28;20022;-91
2022/05/01 04:34:27;;;;;;;;;;;19.50;99.90;;;;;;5119858;28;19908;-91
2022/05/01 04:36:55;;;;;;;;;;;19.50;99.90;;;;;;5120102;28;19935;-88
2022/05/01 04:39:21;;;;;;;;;;;19.50;99.90;;;;;;5117817;28;20350;-90
2022/05/01 04:41:51;;;;;;;;;;;19.30;99.90;;;;;;5119741;28;19919;-91
2022/05/01 04:44:18;;;;;;;;;;;19.30;99.90;;;;;;5118856;28;19974;-84
2022/05/01 04:46:47;;;;;;;;;;;19.30;99.90;;;;;;5119605;28;20315;-91
2022/05/01 04:49:14;;;;;;;;;;;19.20;99.90;;;;;;5120214;28;19951;-90
2022/05/01 04:51:40;;;;;;;;;;;19.20;99.90;;;;;;5120092;28;20003;-91
2022/05/01 04:54:07;;;;;;;;;;;19.20;99.90;;;;;;5120000;28;19953;-84
2022/05/01 04:59:18;;;;;;;;;;;19.20;99.90;;;;;;5117350;28;20381;-92
2022/05/01 05:01:45;;;;;;;;;;;19.30;99.90;;;;;;5116816;28;19908;-79
2022/05/01 05:04:11;;;;;;;;;;;19.40;99.90;;;;;;5116811;28;19908;-80
2022/05/01 05:06:38;;;;;;;;;;;19.50;99.90;;;;;;5117126;28;19927;-88
2022/05/01 05:11:49;;;;;;;;;;;19.50;99.90;;;;;;5116766;28;20395;-81
2022/05/01 05:14:16;;;;;;;;;;;19.50;99.90;;;;;;5116685;28;20052;-81
2022/05/01 05:16:43;;;;;;;;;;;19.50;99.90;;;;;;5115950;28;19908;-84
2022/05/01 05:19:10;;;;;;;;;;;19.60;99.90;;;;;;5115892;28;20030;-80
2022/05/01 05:21:36;;;;;;;;;;;19.50;99.90;;;;;;5116008;28;19931;-79
2022/05/01 05:24:03;;;;;;;;;;;19.50;99.90;;;;;;5116981;28;19914;-79
2022/05/01 05:26:30;;;;;;;;;;;19.50;99.90;;;;;;5116875;28;19911;-83
2022/05/01 05:28:56;;;;;;;;;;;19.50;99.90;;;;;;5117025;28;19953;-85
2022/05/01 05:31:27;;;;;;;;;;;19.40;99.90;;;;;;5116324;28;20311;-83
2022/05/01 05:33:54;;;;;;;;;;;19.40;99.90;;;;;;5116003;28;19912;-89
2022/05/01 05:36:20;;;;;;;;;;;19.40;99.90;;;;;;5102131;28;19914;-79
2022/05/01 05:38:50;;;;;;;;;;;19.30;99.90;;;;;;5094529;28;19995;-82
2022/05/01 05:41:16;;;;;;;;;;;19.30;99.90;;;;;;5095064;28;19915;-81
2022/05/01 05:43:43;;;;;;;;;;;19.20;99.90;;;;;;5094533;28;19908;-79
2022/05/01 05:46:10;;;;;;;;;;;19.20;99.90;;;;;;5094965;28;19970;-81
2022/05/01 05:48:37;;;;;;;;;;;19.10;99.90;;;;;;5094068;28;19909;-79
2022/05/01 05:51:05;;;;;;;;;;;19.20;99.90;;;;;;5093428;28;20279;-82
2022/05/01 05:53:31;;;;;;;;;;;19.20;99.90;;;;;;5093907;28;20275;-78
2022/05/01 05:55:59;;;;;;;;;;;19.20;99.90;;;;;;5093858;28;19908;-80
2022/05/01 05:58:25;;;;;;;;;;;19.20;99.90;;;;;;5093533;28;19960;-78
2022/05/01 06:00:55;;;;;;;;;;;19.10;99.90;;;;;;5094140;28;19944;-80
2022/05/01 06:03:22;;;;;;;;;;;19.10;99.90;;;;;;5094415;28;19920;-81
2022/05/01 06:05:48;;;;;;;;;;;19.10;99.90;;;;;;5093594;28;19908;-80
2022/05/01 06:08:15;;;;;;;;;;;19.00;99.90;;;;;;5093703;28;19915;-78
2022/05/01 06:10:42;;;;;;;;;;;19.00;99.90;;;;;;5092293;28;19960;-79
2022/05/01 06:13:09;;;;;;;;;;;18.90;99.90;;;;;;5092685;28;19994;-79
2022/05/01 06:15:37;;;;;;;;;;;18.90;99.90;;;;;;5093828;28;19909;-80
2022/05/01 06:18:04;;;;;;;;;;;18.90;99.90;;;;;;5093747;28;19912;-79
2022/05/01 06:20:31;;;;;;;;;;;18.90;99.90;;;;;;5093610;28;19908;-81
2022/05/01 06:22:57;;;;;;;;;;;18.80;99.90;;;;;;5093653;28;19908;-82
2022/05/01 06:25:24;;;;;;;;;;;18.90;99.90;;;;;;5093387;28;20298;-82
2022/05/01 06:27:51;;;;;;;;;;;18.90;99.90;;;;;;5092883;28;19951;-85
2022/05/01 06:30:17;;;;;;;;;;;18.90;99.90;;;;;;5093704;28;19908;-80
2022/05/01 06:32:44;;;;;;;;;;;18.80;99.90;;;;;;5093635;28;19912;-79
2022/05/01 06:35:11;;;;;;;;;;;18.80;99.90;;;;;;5093383;28;19969;-81
2022/05/01 06:37:38;;;;;;;;;;;18.80;99.90;;;;;;5093634;28;19908;-81
2022/05/01 06:40:05;;;;;;;;;;;18.80;99.90;;;;;;5093751;28;19994;-80
2022/05/01 06:42:32;;;;;;;;;;;18.80;99.90;;;;;;5093061;28;19908;-79
2022/05/01 06:44:59;;;;;;;;;;;18.70;99.90;;;;;;5093531;28;20370;-80
2022/05/01 06:47:26;;;;;;;;;;;18.70;99.90;;;;;;5093561;28;19916;-78
2022/05/01 06:49:53;;;;;;;;;;;18.70;99.90;;;;;;5094754;28;19920;-79
2022/05/01 06:52:23;;;;;;;;;;;18.70;99.90;;;;;;5095997;28;19923;-79
2022/05/01 06:54:53;;;;;;;;;;;18.50;99.90;;;;;;5097293;28;19931;-79
2022/05/01 06:57:20;;;;;;;;;;;18.50;99.90;;;;;;5096378;28;19967;-79
2022/05/01 06:59:46;;;;;;;;;;;18.50;99.90;;;;;;5096766;28;19909;-80
2022/05/01 07:02:16;;;;;;;;;;;18.50;99.90;;;;;;5096947;28;19912;-81
2022/05/01 07:04:43;;;;;;;;;;;18.50;99.90;;;;;;5096752;28;19992;-79
2022/05/01 07:07:09;;;;;;;;;;;18.40;99.90;;;;;;5096633;28;19919;-79
2022/05/01 07:09:36;;;;;;;;;;;18.40;99.90;;;;;;5096763;28;19954;-81
2022/05/01 07:12:03;;;;;;;;;;;18.40;99.90;;;;;;5095999;28;19916;-79
2022/05/01 07:14:30;;;;;;;;;;;18.30;99.90;;;;;;5096430;28;19908;-81
2022/05/01 07:16:56;;;;;;;;;;;18.30;99.90;;;;;;5096362;28;19941;-79
2022/05/01 07:19:23;;;;;;;;;;;18.20;99.90;;;;;;5096676;28;19909;-80
2022/05/01 07:21:51;;;;;;;;;;;18.20;99.90;;;;;;5096380;28;19916;-79
2022/05/01 07:24:18;;;;;;;;;;;18.10;99.90;;;;;;5096422;28;19908;-80
2022/05/01 07:26:45;;;;;;;;;;;18.10;99.90;;;;;;5096269;28;19908;-84
2022/05/01 07:29:11;;;;;;;;;;;18.00;99.90;;;;;;5096513;28;19908;-79
2022/05/01 07:31:39;;;;;;;;;;;18.00;99.90;;;;;;5096243;28;19959;-81
2022/05/01 07:34:06;;;;;;;;;;;18.00;99.90;;;;;;5096338;28;19908;-83
2022/05/01 07:36:32;;;;;;;;;;;17.90;99.90;;;;;;5096495;28;19912;-86
2022/05/01 07:38:59;;;;;;;;;;;17.90;99.90;;;;;;5096271;28;19996;-83
2022/05/01 07:41:27;;;;;;;;;;;17.90;99.90;;;;;;5096264;28;19908;-84
2022/05/01 07:43:55;;;;;;;;;;;17.90;99.90;;;;;;5095785;28;19969;-81
2022/05/01 07:46:22;;;;;;;;;;;17.80;99.90;;;;;;5096030;28;19992;-83
2022/05/01 07:48:49;;;;;;;;;;;17.80;99.90;;;;;;5094023;28;19912;-81
2022/05/01 07:51:16;;;;;;;;;;;17.80;99.90;;;;;;5093936;28;19945;-85
2022/05/01 07:53:43;;;;;;;;;;;17.70;99.90;;;;;;5094095;28;20007;-81
2022/05/01 07:56:09;;;;;;;;;;;17.70;99.90;;;;;;5094579;28;19912;-85
2022/05/01 07:58:36;;;;;;;;;;;17.70;99.90;;;;;;5094053;28;19908;-85
2022/05/01 08:01:04;;;;;;;;;;;17.70;99.90;;;;;;5093286;28;19970;-84
2022/05/01 08:06:15;;;;;;;;;;;17.70;99.90;;;;;;5094253;28;20360;-86
2022/05/01 08:08:42;;;;;;;;;;;17.70;99.90;;;;;;5093723;28;19937;-81
2022/05/01 08:11:10;;;;;;;;;;;17.70;99.90;;;;;;5093794;28;20382;-82
2022/05/01 08:13:37;;;;;;;;;;;17.60;99.90;;;;;;5093633;28;19908;-84
2022/05/01 08:16:04;;;;;;;;;;;17.60;99.90;;;;;;5093567;28;19933;-85
2022/05/01 08:21:16;;;;;;;;;;;17.60;99.90;;;;;;5093875;28;20404;-84
2022/05/01 08:23:43;;;;;;;;;;;17.60;99.90;;;;;;5093776;28;20373;-83
2022/05/01 08:26:11;;;;;;;;;;;17.50;99.90;;;;;;5093686;28;19939;-79
2022/05/01 08:28:38;;;;;;;;;;;17.50;99.90;;;;;;5092904;28;19977;-80
2022/05/01 08:31:05;;;;;;;;;;;17.50;99.90;;;;;;5093153;28;20409;-79
2022/05/01 08:33:33;;;;;;;;;;;17.50;99.90;;;;;;5093200;28;19916;-77
2022/05/01 08:36:02;;;;;;;;;;;17.50;99.90;;;;;;5093085;28;19939;-77
2022/05/01 08:38:29;;;;;;;;;;;17.40;99.90;;;;;;5092813;28;19934;-77
2022/05/01 08:40:55;;;;;;;;;;;17.40;99.90;;;;;;5092356;28;19908;-79
2022/05/01 08:43:23;;;;;;;;;;;17.40;99.90;;;;;;5091579;28;20373;-82
2022/05/01 08:46:04;;;;;;;;;;;17.40;99.90;;;;;;5071672;28;19919;-80
2022/05/01 08:48:31;;;;;;;;;;;17.40;99.90;;;;;;5072463;28;20367;-78
2022/05/01 08:50:59;;;;;;;;;;;17.30;99.90;;;;;;5072177;28;19932;-80
2022/05/01 08:53:26;;;;;;;;;;;17.40;99.90;;;;;;5071812;28;19909;-78
2022/05/01 08:55:53;;;;;;;;;;;17.40;99.90;;;;;;5071801;28;19981;-77
2022/05/01 08:58:20;;;;;;;;;;;17.30;99.90;;;;;;5072259;28;19912;-78
2022/05/01 09:00:49;;;;;;;;;;;17.40;99.90;;;;;;5072468;28;19999;-79
2022/05/01 09:03:16;;;;;;;;;;;17.30;99.90;;;;;;5070452;28;20267;-77
2022/05/01 09:05:43;;;;;;;;;;;17.30;99.90;;;;;;5074196;28;19946;-77
2022/05/01 09:08:10;;;;;;;;;;;17.30;99.90;;;;;;5073674;28;19909;-78
2022/05/01 09:10:37;;;;;;;;;;;17.30;99.90;;;;;;5074189;28;19915;-78
2022/05/01 09:13:03;;;;;;;;;;;17.20;99.90;;;;;;5073163;28;19915;-80
2022/05/01 09:15:37;;;;;;;;;;;17.20;99.90;;;;;;5073554;28;19915;-77
2022/05/01 09:18:05;;;;;;;;;;;17.20;99.90;;;;;;5073918;28;19913;-78
2022/05/01 09:20:39;;;;;;;;;;;17.20;99.90;;;;;;5073750;28;19930;-78
2022/05/01 09:23:07;;;;;;;;;;;17.20;99.90;;;;;;5073903;28;19908;-77
2022/05/01 09:25:33;;;;;;;;;;;17.20;99.90;;;;;;5073446;28;19909;-79
2022/05/01 09:28:18;;;;;;;;;;;17.20;99.90;;;;;;5073694;28;20378;-80
2022/05/01 09:30:45;;;;;;;;;;;17.20;99.90;;;;;;5073772;28;19921;-80
2022/05/01 09:33:19;;;;;;;;;;;17.20;99.90;;;;;;5073775;28;19908;-79
2022/05/01 09:35:46;;;;;;;;;;;17.20;99.90;;;;;;5073517;28;19931;-78
2022/05/01 09:38:22;;;;;;;;;;;17.20;99.90;;;;;;5073818;28;19909;-81
2022/05/01 09:40:50;;;;;;;;;;;17.20;99.90;;;;;;5073885;28;19915;-80
2022/05/01 09:43:36;;;;;;;;;;;17.20;99.90;;;;;;5073936;28;19991;-79
2022/05/01 09:46:14;;;;;;;;;;;17.20;99.90;;;;;;5073752;28;19908;-82
2022/05/01 09:48:41;;;;;;;;;;;17.20;99.90;;;;;;5073504;28;19915;-81
2022/05/01 09:51:16;;;;;;;;;;;17.20;99.90;;;;;;5090817;28;19952;-81
2022/05/01 09:53:42;;;;;;;;;;;17.10;99.90;;;;;;5091667;28;19915;-84
2022/05/01 09:56:09;;;;;;;;;;;17.10;99.90;;;;;;5091863;28;19912;-79
2022/05/01 09:58:40;;;;;;;;;;;17.10;99.90;;;;;;5091426;28;20238;-84
2022/05/01 10:01:10;;;;;;;;;;;17.10;99.90;;;;;;5090509;28;19912;-81
2022/05/01 10:03:38;;;;;;;;;;;17.00;99.90;;;;;;5091631;28;20419;-82
2022/05/01 10:06:06;;;;;;;;;;;17.00;99.90;;;;;;5091866;28;19965;-79
2022/05/01 10:08:33;;;;;;;;;;;17.00;99.90;;;;;;5091732;28;20359;-83
2022/05/01 10:11:00;;;;;;;;;;;17.00;99.90;;;;;;5091431;28;20366;-79
2022/05/01 10:13:27;;;;;;;;;;;16.90;99.90;;;;;;5090050;28;20369;-81
2022/05/01 10:15:54;;;;;;;;;;;17.00;99.90;;;;;;5091094;28;20378;-82
2022/05/01 10:18:23;;;;;;;;;;;16.90;99.90;;;;;;5091656;28;20370;-80
2022/05/01 10:20:49;;;;;;;;;;;16.90;99.90;;;;;;5091423;28;20420;-81
2022/05/01 10:23:16;;;;;;;;;;;16.90;99.90;;;;;;5092171;28;19908;-82
2022/05/01 10:25:49;;;;;;;;;;;16.90;99.90;;;;;;5095190;28;19912;-79
2022/05/01 10:28:22;;;;;;;;;;;16.90;99.90;;;;;;5095031;28;20278;-78
2022/05/01 10:33:50;;;;;;;;;;;16.90;99.90;;;;;;5095494;28;19957;-82
2022/05/01 10:36:35;;;;;;;;;;;16.90;99.90;;;;;;5095703;28;19916;-82
2022/05/01 10:39:10;;;;;;;;;;;16.90;99.90;;;;;;5095654;28;19993;-79
2022/05/01 10:41:44;;;;;;;;;;;16.90;99.90;;;;;;5094500;28;19908;-79
2022/05/01 10:44:36;;;;;;;;;;;16.90;99.90;;;;;;5095046;28;19916;-80
2022/05/01 10:47:05;;;;;;;;;;;16.90;99.90;;;;;;5095634;28;20381;-89
2022/05/01 10:49:36;;;;;;;;;;;16.90;99.90;;;;;;5103725;28;19920;-89
2022/05/01 10:52:23;;;;;;;;;;;16.80;99.90;;;;;;5107996;28;19981;-79
2022/05/01 10:54:59;;;;;;;;;;;16.80;99.90;;;;;;5114955;28;20389;-81
2022/05/01 10:57:26;;;;;;;;;;;16.80;99.90;;;;;;5113435;28;19908;-83
2022/05/01 11:00:25;;;;;;;;;;;16.80;99.90;;;;;;5114517;28;19949;-81
2022/05/01 11:02:51;;;;;;;;;;;16.80;99.90;;;;;;5081642;28;19984;-78
2022/05/01 11:05:36;;;;;;;;;;;16.80;99.90;;;;;;5115639;28;19907;-78
2022/05/01 11:08:04;;;;;;;;;;;16.80;99.90;;;;;;5115068;28;19908;-80
2022/05/01 11:10:31;;;;;;;;;;;16.80;99.90;;;;;;5115088;28;20419;-78
2022/05/01 11:12:58;;;;;;;;;;;16.70;99.90;;;;;;5114431;28;19970;-82
2022/05/01 11:15:27;;;;;;;;;;;16.70;99.90;;;;;;5115371;28;19912;-78
2022/05/01 11:17:54;;;;;;;;;;;16.70;99.90;;;;;;5113503;28;19912;-79
2022/05/01 11:20:21;;;;;;;;;;;16.70;99.90;;;;;;5115192;28;19947;-81
2022/05/01 11:22:48;;;;;;;;;;;16.70;99.90;;;;;;5114787;28;19908;-79
2022/05/01 11:25:18;;;;;;;;;;;16.70;99.90;;;;;;5114776;28;19908;-80
2022/05/01 11:27:49;;;;;;;;;;;16.70;99.90;;;;;;5112735;28;19908;-81
2022/05/01 11:30:22;;;;;;;;;;;16.70;99.90;;;;;;5113314;28;20339;-78
2022/05/01 11:32:52;;;;;;;;;;;16.70;99.90;;;;;;5114541;28;20065;-84
2022/05/01 11:35:19;;;;;;;;;;;16.70;99.90;;;;;;5113496;28;19908;-82
2022/05/01 11:38:01;;;;;;;;;;;16.70;99.90;;;;;;5114337;28;19973;-82
2022/05/01 11:40:28;;;;;;;;;;;16.70;99.90;;;;;;5113645;28;20368;-78
2022/05/01 11:43:21;;;;;;;;;;;16.70;99.90;;;;;;5113066;28;19951;-82
2022/05/01 11:45:48;;;;;;;;;;;16.70;99.90;;;;;;5110702;28;19908;-78
2022/05/01 11:48:16;;;;;;;;;;;16.70;99.90;;;;;;5112618;28;20018;-77
2022/05/01 11:50:44;;;;;;;;;;;16.70;99.90;;;;;;5114105;28;20305;-77
2022/05/01 11:53:22;;;;;;;;;;;16.70;99.90;;;;;;5114301;28;19915;-78
2022/05/01 12:04:23;;;;;;;;;;;16.70;99.90;;;;;;5114742;28;19918;-79
2022/05/01 12:06:56;;;;;;;;;;;16.80;99.90;;;;;;5113010;28;19943;-83
2022/05/01 12:09:25;;;;;;;;;;;16.80;99.90;;;;;;5114453;28;19931;-78
2022/05/01 12:11:51;;;;;;;;;;;16.80;99.90;;;;;;5114382;28;20319;-84
2022/05/01 12:14:18;;;;;;;;;;;16.80;99.90;;;;;;5114061;28;19907;-86
2022/05/01 12:16:48;;;;;;;;;;;16.80;99.90;;;;;;5114270;28;20499;-84
2022/05/01 12:19:16;;;;;;;;;;;16.80;99.90;;;;;;5114561;28;20006;-82
2022/05/01 12:21:42;;;;;;;;;;;16.90;99.90;;;;;;5114607;28;19908;-80
2022/05/01 12:24:10;;;;;;;;;;;17.00;99.90;;;;;;5114401;28;19915;-81
2022/05/01 12:26:38;;;;;;;;;;;16.90;99.90;;;;;;5112228;28;19908;-84
2022/05/01 12:29:09;;;;;;;;;;;16.90;99.90;;;;;;5113708;28;20290;-82
2022/05/01 12:32:06;;;;;;;;;;;16.90;99.90;;;;;;5113483;28;19920;-80
2022/05/01 12:34:38;;;;;;;;;;;16.80;99.90;;;;;;5100891;28;19934;-80
2022/05/01 12:37:09;;;;;;;;;;;16.80;99.90;;;;;;5113775;28;19911;-85
2022/05/01 12:39:36;;;;;;;;;;;16.70;99.90;;;;;;5113017;28;20342;-79
2022/05/01 12:45:04;;;;;;;;;;;16.60;99.90;;;;;;5113732;28;19960;-84
2022/05/01 12:47:36;;;;;;;;;;;16.60;99.90;;;;;;5113145;28;19908;-82
2022/05/01 12:50:07;;;;;;;;;;;16.60;99.90;;;;;;5113120;28;20436;-81
2022/05/01 12:52:34;;;;;;;;;;;16.60;99.90;;;;;;5113103;28;19919;-80
2022/05/01 12:55:20;;;;;;;;;;;16.60;99.90;;;;;;5112909;28;20358;-81
2022/05/01 12:57:50;;;;;;;;;;;16.60;99.90;;;;;;5112810;28;20057;-80
2022/05/01 13:00:29;;;;;;;;;;;16.60;99.90;;;;;;5113107;28;19912;-81
2022/05/01 13:03:24;;;;;;;;;;;16.60;99.90;;;;;;5113090;28;19968;-79
2022/05/01 13:06:01;;;;;;;;;;;16.60;99.90;;;;;;5106485;28;19908;-78
2022/05/01 13:08:30;;;;;;;;;;;16.50;99.90;;;;;;5112857;28;19916;-79
2022/05/01 13:11:17;;;;;;;;;;;16.60;99.90;;;;;;5112743;28;20006;-84
2022/05/01 13:13:56;;;;;;;;;;;16.50;99.90;;;;;;5112628;28;19911;-86
2022/05/01 13:16:24;;;;;;;;;;;16.50;99.90;;;;;;5112722;28;19907;-78
2022/05/01 13:18:52;;;;;;;;;;;16.40;99.90;;;;;;5112317;28;19908;-80
2022/05/01 13:21:19;;;;;;;;;;;16.40;99.90;;;;;;5112664;28;19988;-78
2022/05/01 13:23:46;;;;;;;;;;;16.30;99.90;;;;;;5112503;28;19957;-79
2022/05/01 13:26:13;;;;;;;;;;;16.30;99.90;;;;;;5112548;28;19911;-83
2022/05/01 13:28:40;;;;;;;;;;;16.30;99.90;;;;;;5118291;28;20050;-91
2022/05/01 13:31:07;;;;;;;;;;;16.30;99.90;;;;;;5118572;28;20286;-91
2022/05/01 13:33:33;;;;;;;;;;;16.20;99.90;;;;;;5115175;28;19916;-90
2022/05/01 13:36:00;;;;;;;;;;;16.20;99.90;;;;;;5115908;28;20007;-91
2022/05/01 13:38:27;;;;;;;;;;;16.20;99.90;;;;;;5117794;28;19914;-91
2022/05/01 13:46:24;;;;;;;;;;;16.20;99.90;;;;;;5114359;28;19919;-93
2022/05/01 13:48:52;;;;;;;;;;;16.20;99.90;;;;;;5115043;28;19999;-89
2022/05/01 13:51:20;;;;;;;;;;;16.20;99.90;;;;;;5114699;28;20023;-90
2022/05/01 13:53:47;;;;;;;;;;;16.20;99.90;;;;;;5114317;28;19907;-92
2022/05/01 13:56:15;;;;;;;;;;;16.20;99.90;;;;;;5114618;28;19922;-92
2022/05/01 13:58:42;;;;;;;;;;;16.20;99.90;;;;;;5114141;28;19912;-92
2022/05/01 14:01:09;;;;;;;;;;;16.20;99.90;;;;;;5115073;28;19912;-92
2022/05/01 14:03:36;;;;;;;;;;;16.10;99.90;;;;;;5114135;28;19908;-93
2022/05/01 14:06:03;;;;;;;;;;;16.10;99.90;;;;;;5114581;28;19908;-90
2022/05/01 14:08:30;;;;;;;;;;;16.10;99.90;;;;;;5114595;28;19915;-92
2022/05/01 14:10:56;;;;;;;;;;;16.10;99.90;;;;;;5113177;28;20362;-91
2022/05/01 14:13:24;;;;;;;;;;;16.10;99.90;;;;;;5113498;28;19915;-89
2022/05/01 14:15:50;;;;;;;;;;;16.10;99.90;;;;;;5114470;28;19911;-94
2022/05/01 14:18:19;;;;;;;;;;;16.10;99.90;;;;;;5114466;28;19956;-92
2022/05/01 14:20:46;;;;;;;;;;;16.00;99.90;;;;;;5114545;28;20073;-92
2022/05/01 14:23:14;;;;;;;;;;;16.00;99.90;;;;;;5114308;28;19907;-93
2022/05/01 14:25:40;;;;;;;;;;;16.10;99.90;;;;;;5113582;28;20022;-92
2022/05/01 14:28:07;;;;;;;;;;;16.10;99.90;;;;;;5114200;28;19908;-93
2022/05/01 14:30:35;;;;;;;;;;;16.00;99.90;;;;;;5114087;28;20024;-92
2022/05/01 14:33:12;;;;;;;;;;;16.00;99.90;;;;;;5113852;28;19920;-91
2022/05/01 14:35:39;;;;;;;;;;;16.00;99.90;;;;;;5114183;28;20350;-92
2022/05/01 14:38:10;;;;;;;;;;;16.00;99.90;;;;;;5113859;28;19939;-92
2022/05/01 14:40:37;;;;;;;;;;;16.00;99.90;;;;;;5113668;28;19908;-90
2022/05/01 14:43:17;;;;;;;;;;;15.90;99.90;;;;;;5114141;28;20322;-86
2022/05/01 14:45:50;;;;;;;;;;;15.90;99.90;;;;;;5113940;28;19953;-93
2022/05/01 14:48:17;;;;;;;;;;;15.90;99.90;;;;;;5114240;28;20212;-93
2022/05/01 14:50:47;;;;;;;;;;;15.90;99.90;;;;;;5113654;28;20006;-92
2022/05/01 14:53:13;;;;;;;;;;;15.90;99.90;;;;;;5114024;28;19919;-92
2022/05/01 14:55:41;;;;;;;;;;;15.90;99.90;;;;;;5113778;28;19912;-92
2022/05/01 15:06:29;;;;;;;;;;;15.90;99.90;;;;;;5111898;28;19998;-80
2022/05/01 15:08:58;;;;;;;;;;;15.90;99.90;;;;;;5111413;28;19991;-79
2022/05/01 15:11:25;;;;;;;;;;;15.90;99.90;;;;;;5113954;28;20315;-82
2022/05/01 15:13:51;;;;;;;;;;;15.80;99.90;;;;;;5115548;28;20044;-78
2022/05/01 15:16:34;;;;;;;;;;;15.90;99.90;;;;;;5115234;28;19931;-81